createdAt,value
2022-10-17T00:02:37.918Z,15.00
2022-10-17T00:05:25.084Z,15.00
2022-10-17T00:08:13.806Z,15.00
2022-10-17T00:11:04.131Z,14.90
2022-10-17T00:13:52.121Z,14.90
2022-10-17T00:16:39.048Z,14.80
2022-10-17T00:19:25.697Z,14.80
2022-10-17T00:22:12.172Z,14.80
2022-10-17T00:24:58.739Z,14.80
2022-10-17T00:27:46.767Z,14.70
2022-10-17T00:30:33.831Z,14.70
2022-10-17T00:33:20.445Z,14.60
2022-10-17T00:36:08.949Z,14.60
2022-10-17T00:38:57.624Z,14.60
2022-10-17T00:41:44.159Z,14.60
2022-10-17T00:45:01.343Z,14.60
2022-10-17T00:47:52.642Z,14.60
2022-10-17T00:50:41.698Z,14.60
2022-10-17T00:53:29.276Z,14.60
2022-10-17T00:56:17.372Z,14.50
2022-10-17T00:59:07.525Z,14.50
2022-10-17T01:02:03.063Z,14.50
2022-10-17T01:04:53.212Z,14.50
2022-10-17T01:07:42.340Z,14.50
2022-10-17T01:10:43.665Z,14.40
2022-10-17T01:13:35.359Z,14.40
2022-10-17T01:16:32.884Z,14.40
2022-10-17T01:19:40.379Z,14.30
2022-10-17T01:22:32.396Z,14.30
2022-10-17T01:25:28.613Z,14.30
2022-10-17T01:28:30.686Z,14.30
2022-10-17T01:31:22.642Z,14.30
2022-10-17T01:34:15.651Z,14.30
2022-10-17T01:37:05.454Z,14.30
2022-10-17T01:39:55.779Z,14.30
2022-10-17T01:42:49.363Z,14.30
2022-10-17T01:45:41.694Z,14.20
2022-10-17T01:48:36.100Z,14.30
2022-10-17T01:51:26.305Z,14.30
2022-10-17T01:54:16.619Z,14.30
2022-10-17T01:57:06.993Z,14.30
2022-10-17T01:59:56.508Z,14.30
2022-10-17T02:02:44.962Z,14.30
2022-10-17T02:05:37.575Z,14.30
2022-10-17T02:08:29.098Z,14.30
2022-10-17T02:11:18.607Z,14.40
2022-10-17T02:14:19.909Z,14.50
2022-10-17T02:17:15.112Z,14.50
2022-10-17T02:20:11.467Z,14.60
2022-10-17T02:23:04.552Z,14.60
2022-10-17T02:25:56.607Z,14.60
2022-10-17T02:28:48.515Z,14.70
2022-10-17T02:31:41.154Z,14.80
2022-10-17T02:34:31.877Z,14.80
2022-10-17T02:37:24.000Z,14.80
2022-10-17T02:40:15.348Z,14.80
2022-10-17T02:43:01.928Z,14.80
2022-10-17T02:45:49.627Z,14.90
2022-10-17T02:48:39.960Z,14.90
2022-10-17T02:51:34.221Z,14.90
2022-10-17T02:54:24.251Z,14.90
2022-10-17T02:57:18.025Z,14.90
2022-10-17T03:00:08.743Z,14.90
2022-10-17T03:02:56.019Z,14.80
2022-10-17T03:05:42.591Z,14.90
2022-10-17T03:08:29.121Z,14.90
2022-10-17T03:11:15.555Z,15.00
2022-10-17T03:14:03.431Z,15.00
2022-10-17T03:16:50.277Z,15.00
2022-10-17T03:19:36.777Z,15.00
2022-10-17T03:22:23.305Z,15.10
2022-10-17T03:25:10.056Z,15.10
2022-10-17T03:27:58.715Z,15.10
2022-10-17T03:30:46.512Z,15.10
2022-10-17T03:33:33.270Z,15.10
2022-10-17T03:36:20.627Z,15.20
2022-10-17T03:39:06.957Z,15.30
2022-10-17T03:41:53.604Z,15.30
2022-10-17T03:44:40.031Z,15.40
2022-10-17T03:47:29.293Z,15.40
2022-10-17T03:50:16.148Z,15.40
2022-10-17T03:53:03.080Z,15.40
2022-10-17T03:55:49.453Z,15.50
2022-10-17T03:58:35.942Z,15.60
2022-10-17T04:01:23.210Z,15.60
2022-10-17T04:04:11.263Z,15.60
2022-10-17T04:06:58.092Z,15.60
2022-10-17T04:09:44.450Z,15.60
2022-10-17T04:12:31.139Z,15.70
2022-10-17T04:15:18.328Z,15.60
2022-10-17T04:20:57.977Z,15.70
2022-10-17T04:23:44.813Z,15.70
2022-10-17T04:26:31.378Z,15.70
2022-10-17T04:29:17.837Z,15.70
2022-10-17T04:32:04.439Z,15.70
2022-10-17T04:34:51.276Z,15.70
2022-10-17T04:37:39.569Z,15.70
2022-10-17T04:40:26.333Z,15.70
2022-10-17T04:43:12.741Z,15.70
2022-10-17T04:46:00.052Z,15.80
2022-10-17T04:48:46.914Z,15.80
2022-10-17T04:51:33.409Z,15.80
2022-10-17T04:54:21.285Z,15.80
2022-10-17T04:57:08.072Z,15.90
2022-10-17T04:59:54.628Z,15.80
2022-10-17T05:02:41.049Z,15.80
2022-10-17T05:05:27.615Z,15.90
2022-10-17T05:08:14.331Z,15.90
2022-10-17T05:11:02.822Z,15.90
2022-10-17T05:13:52.587Z,15.90
2022-10-17T05:16:39.187Z,15.90
2022-10-17T05:19:25.604Z,16.00
2022-10-17T05:22:12.135Z,16.00
2022-10-17T05:24:58.708Z,16.10
2022-10-17T05:27:46.588Z,16.10
2022-10-17T05:30:35.302Z,16.00
2022-10-17T05:33:24.562Z,16.10
2022-10-17T05:36:11.589Z,16.10
2022-10-17T05:38:58.144Z,16.10
2022-10-17T05:41:44.936Z,16.10
2022-10-17T05:44:33.632Z,16.10
2022-10-17T05:47:20.188Z,16.10
2022-10-17T05:50:07.519Z,16.10
2022-10-17T05:52:55.079Z,16.20
2022-10-17T05:55:41.804Z,16.10
2022-10-17T06:01:37.055Z,16.10
2022-10-17T06:04:24.123Z,16.10
2022-10-17T06:07:10.859Z,16.10
2022-10-17T06:09:58.956Z,16.10
2022-10-17T06:12:46.212Z,16.10
2022-10-17T06:15:32.978Z,16.10
2022-10-17T06:18:20.909Z,16.10
2022-10-17T06:21:09.693Z,16.10
2022-10-17T06:23:56.332Z,16.10
2022-10-17T06:26:43.143Z,16.10
2022-10-17T06:29:29.531Z,16.20
2022-10-17T06:32:16.028Z,16.20
2022-10-17T06:35:04.256Z,16.20
2022-10-17T06:37:51.024Z,16.20
2022-10-17T06:40:37.533Z,16.30
2022-10-17T06:43:27.734Z,16.30
2022-10-17T06:46:16.198Z,16.30
2022-10-17T06:49:04.621Z,16.30
2022-10-17T06:51:52.580Z,16.30
2022-10-17T06:54:38.980Z,16.40
2022-10-17T06:57:25.734Z,16.50
2022-10-17T07:00:13.819Z,16.50
2022-10-17T07:03:00.094Z,16.50
2022-10-17T07:05:53.240Z,16.60
2022-10-17T07:08:44.520Z,16.60
2022-10-17T07:11:30.993Z,16.70
2022-10-17T07:14:17.472Z,16.70
2022-10-17T07:17:04.868Z,16.80
2022-10-17T07:19:51.344Z,16.90
2022-10-17T07:22:37.804Z,16.80
2022-10-17T07:25:26.121Z,16.90
2022-10-17T07:28:13.056Z,17.00
2022-10-17T07:31:04.796Z,17.00
2022-10-17T07:33:51.662Z,17.00
2022-10-17T07:36:38.348Z,17.00
2022-10-17T07:39:24.857Z,17.10
2022-10-17T07:42:14.485Z,17.20
2022-10-17T07:45:01.155Z,17.20
2022-10-17T07:47:47.843Z,17.30
2022-10-17T07:50:34.772Z,17.30
2022-10-17T07:53:21.359Z,17.40
2022-10-17T07:56:09.712Z,17.40
2022-10-17T07:58:59.848Z,17.50
2022-10-17T08:01:49.423Z,17.50
2022-10-17T08:04:36.403Z,17.60
2022-10-17T08:07:28.368Z,17.60
2022-10-17T08:10:17.225Z,17.60
2022-10-17T08:13:03.779Z,17.70
2022-10-17T08:15:51.935Z,17.80
2022-10-17T08:18:40.536Z,17.80
2022-10-17T08:21:26.998Z,17.80
2022-10-17T08:24:13.431Z,17.90
2022-10-17T08:27:00.693Z,17.90
2022-10-17T08:29:48.833Z,18.00
2022-10-17T08:32:36.675Z,18.00
2022-10-17T08:35:23.855Z,18.10
2022-10-17T08:38:12.339Z,18.10
2022-10-17T08:41:03.360Z,18.20
2022-10-17T08:44:03.319Z,18.20
2022-10-17T08:46:53.239Z,18.30
2022-10-17T08:49:47.889Z,18.30
2022-10-17T08:52:39.829Z,18.40
2022-10-17T08:55:33.337Z,18.40
2022-10-17T08:58:22.906Z,18.40
2022-10-17T09:01:24.147Z,18.40
2022-10-17T09:04:43.449Z,18.50
2022-10-17T09:07:38.165Z,18.60
2022-10-17T09:10:32.111Z,18.60
2022-10-17T09:13:30.029Z,18.70
2022-10-17T09:16:31.272Z,18.80
2022-10-17T09:19:22.321Z,18.90
2022-10-17T09:22:13.623Z,19.00
2022-10-17T09:25:06.869Z,19.10
2022-10-17T09:27:57.555Z,19.20
2022-10-17T09:30:46.378Z,19.20
2022-10-17T09:33:53.836Z,19.40
2022-10-17T09:36:42.545Z,19.40
2022-10-17T09:39:32.066Z,19.40
2022-10-17T09:42:22.507Z,19.40
2022-10-17T09:45:19.381Z,19.60
2022-10-17T09:48:12.654Z,19.70
2022-10-17T09:51:15.184Z,19.70
2022-10-17T09:54:19.123Z,19.70
2022-10-17T09:57:08.728Z,19.80
2022-10-17T10:00:02.596Z,19.80
2022-10-17T10:02:49.287Z,19.90
2022-10-17T10:05:35.814Z,19.90
2022-10-17T10:08:24.440Z,20.10
2022-10-17T10:11:13.827Z,20.20
2022-10-17T10:14:13.167Z,20.30
2022-10-17T10:17:02.427Z,20.40
2022-10-17T10:19:52.211Z,20.60
2022-10-17T10:22:38.612Z,20.80
2022-10-17T10:25:25.048Z,20.90
2022-10-17T10:28:12.629Z,21.10
2022-10-17T10:31:01.743Z,21.10
2022-10-17T10:33:52.134Z,20.90
2022-10-17T10:36:49.736Z,21.00
2022-10-17T10:39:45.911Z,21.10
2022-10-17T10:42:35.074Z,21.30
2022-10-17T10:48:36.132Z,21.70
2022-10-17T10:51:28.775Z,21.80
2022-10-17T10:54:21.253Z,21.90
2022-10-17T10:57:11.848Z,22.00
2022-10-17T11:00:05.779Z,22.10
2022-10-17T11:03:01.862Z,22.30
2022-10-17T11:05:54.228Z,22.40
2022-10-17T11:08:47.027Z,22.30
2022-10-17T11:11:39.295Z,22.30
2022-10-17T11:14:38.599Z,22.30
2022-10-17T11:17:33.373Z,22.30
2022-10-17T11:20:24.175Z,22.30
2022-10-17T11:23:20.710Z,22.30
2022-10-17T11:26:14.684Z,22.30
2022-10-17T11:29:06.612Z,22.20
2022-10-17T11:31:57.821Z,22.20
2022-10-17T11:34:48.703Z,22.20
2022-10-17T11:37:40.967Z,22.10
2022-10-17T11:40:33.719Z,22.10
2022-10-17T11:43:28.591Z,22.10
2022-10-17T11:46:19.333Z,22.00
2022-10-17T11:49:14.025Z,22.00
2022-10-17T11:52:26.995Z,22.00
2022-10-17T11:55:24.818Z,22.00
2022-10-17T11:58:30.589Z,22.00
2022-10-17T12:01:25.448Z,22.00
2022-10-17T12:04:27.448Z,22.00
2022-10-17T12:07:19.761Z,22.00
2022-10-17T12:10:19.159Z,22.00
2022-10-17T12:13:42.990Z,22.10
2022-10-17T12:16:52.035Z,22.10
2022-10-17T12:19:39.139Z,22.10
2022-10-17T12:22:27.046Z,22.10
2022-10-17T12:25:20.519Z,22.10
2022-10-17T12:28:15.074Z,22.10
2022-10-17T12:31:05.820Z,22.00
2022-10-17T12:33:56.351Z,22.00
2022-10-17T12:36:43.268Z,21.90
2022-10-17T12:39:51.761Z,21.80
2022-10-17T12:42:51.634Z,21.80
2022-10-17T12:45:49.788Z,21.70
2022-10-17T12:49:04.290Z,21.70
2022-10-17T12:52:29.727Z,21.80
2022-10-17T12:55:18.348Z,21.80
2022-10-17T12:58:08.184Z,21.80
2022-10-17T13:01:23.909Z,21.80
2022-10-17T13:04:06.639Z,21.80
2022-10-17T13:06:56.088Z,21.70
2022-10-17T13:09:45.352Z,21.70
2022-10-17T13:12:36.523Z,21.70
2022-10-17T13:15:24.334Z,21.60
2022-10-17T13:18:21.130Z,21.60
2022-10-17T13:21:16.688Z,21.50
2022-10-17T13:24:20.228Z,21.50
2022-10-17T13:27:08.575Z,21.50
2022-10-17T13:29:57.321Z,21.60
2022-10-17T13:32:45.138Z,21.40
2022-10-17T13:35:58.907Z,21.40
2022-10-17T13:38:44.167Z,21.50
2022-10-17T13:41:36.590Z,21.40
2022-10-17T13:44:27.119Z,21.50
2022-10-17T13:47:23.506Z,21.60
2022-10-17T13:50:42.953Z,21.50
2022-10-17T13:53:33.093Z,21.60
2022-10-17T13:56:28.503Z,21.60
2022-10-17T13:59:25.192Z,21.50
2022-10-17T14:02:17.022Z,21.50
2022-10-17T14:05:18.783Z,21.40
2022-10-17T14:08:11.772Z,21.50
2022-10-17T14:11:01.023Z,21.40
2022-10-17T14:13:53.355Z,21.40
2022-10-17T14:16:42.855Z,21.40
2022-10-17T14:19:32.899Z,21.40
2022-10-17T14:22:26.608Z,21.30
2022-10-17T14:25:29.769Z,21.30
2022-10-17T14:28:18.485Z,21.30
2022-10-17T14:31:29.995Z,21.20
2022-10-17T14:34:24.856Z,21.30
2022-10-17T14:37:13.743Z,21.20
2022-10-17T14:40:01.385Z,21.20
2022-10-17T14:42:49.337Z,21.10
2022-10-17T14:45:38.067Z,21.10
2022-10-17T14:48:27.345Z,21.10
2022-10-17T14:51:16.527Z,21.10
2022-10-17T14:54:19.475Z,21.10
2022-10-17T14:57:15.940Z,21.10
2022-10-17T15:00:02.691Z,21.10
2022-10-17T15:02:52.091Z,21.00
2022-10-17T15:05:40.687Z,21.00
2022-10-17T15:08:27.268Z,20.90
2022-10-17T15:11:13.901Z,20.90
2022-10-17T15:14:00.757Z,20.80
2022-10-17T15:16:47.259Z,20.70
2022-10-17T15:19:33.708Z,20.70
2022-10-17T15:22:21.972Z,20.70
2022-10-17T15:25:09.233Z,20.70
2022-10-17T15:27:56.529Z,20.70
2022-10-17T15:30:43.363Z,20.60
2022-10-17T15:33:30.010Z,20.60
2022-10-17T15:36:21.764Z,20.50
2022-10-17T15:39:11.195Z,20.50
2022-10-17T15:41:57.828Z,20.40
2022-10-17T15:44:44.888Z,20.40
2022-10-17T15:47:33.866Z,20.40
2022-10-17T15:50:21.786Z,20.40
2022-10-17T15:53:12.368Z,20.40
2022-10-17T15:56:01.443Z,20.40
2022-10-17T15:58:48.118Z,20.30
2022-10-17T16:01:35.978Z,20.30
2022-10-17T16:04:24.131Z,20.30
2022-10-17T16:07:11.071Z,20.30
2022-10-17T16:09:57.886Z,20.10
2022-10-17T16:12:46.978Z,20.20
2022-10-17T16:15:34.083Z,20.10
2022-10-17T16:18:21.216Z,20.20
2022-10-17T16:21:07.720Z,20.10
2022-10-17T16:23:54.804Z,20.10
2022-10-17T16:26:42.066Z,20.10
2022-10-17T16:29:29.960Z,20.10
2022-10-17T16:32:16.669Z,20.00
2022-10-17T16:35:03.066Z,20.00
2022-10-17T16:37:50.051Z,20.00
2022-10-17T16:40:40.291Z,19.90
2022-10-17T16:43:26.952Z,19.90
2022-10-17T16:46:15.141Z,19.90
2022-10-17T16:49:01.928Z,19.90
2022-10-17T16:51:48.346Z,20.00
2022-10-17T16:54:35.263Z,19.90
2022-10-17T16:57:21.832Z,19.90
2022-10-17T17:00:11.867Z,19.80
2022-10-17T17:02:59.898Z,19.80
2022-10-17T17:05:51.388Z,19.80
2022-10-17T17:08:38.216Z,19.70
2022-10-17T17:11:26.962Z,19.70
2022-10-17T17:14:13.745Z,19.70
2022-10-17T17:17:00.009Z,19.70
2022-10-17T17:19:48.095Z,19.60
2022-10-17T17:22:34.862Z,19.60
2022-10-17T17:25:21.312Z,19.60
2022-10-17T17:28:08.293Z,19.50
2022-10-17T17:30:55.723Z,19.60
2022-10-17T17:33:43.424Z,19.50
2022-10-17T17:36:33.892Z,19.60
2022-10-17T17:39:20.506Z,19.50
2022-10-17T17:42:06.850Z,19.50
2022-10-17T17:44:53.442Z,19.50
2022-10-17T17:47:40.098Z,19.50
2022-10-17T17:50:26.537Z,19.40
2022-10-17T17:53:16.412Z,19.40
2022-10-17T17:56:03.791Z,19.40
2022-10-17T17:58:55.783Z,19.40
2022-10-17T18:01:42.946Z,19.40
2022-10-17T18:04:29.709Z,19.40
2022-10-17T18:07:16.167Z,19.40
2022-10-17T18:10:04.847Z,19.40
2022-10-17T18:12:52.185Z,19.40
2022-10-17T18:15:41.610Z,19.20
2022-10-17T18:18:29.811Z,19.20
2022-10-17T18:21:16.962Z,19.20
2022-10-17T18:24:04.823Z,19.20
2022-10-17T18:26:56.064Z,19.20
2022-10-17T18:29:42.694Z,19.20
2022-10-17T18:32:32.020Z,19.20
2022-10-17T18:35:19.344Z,19.30
2022-10-17T18:38:05.961Z,19.30
2022-10-17T18:41:02.567Z,19.20
2022-10-17T18:43:51.531Z,19.20
2022-10-17T18:46:40.917Z,19.10
2022-10-17T18:49:27.884Z,19.20
2022-10-17T18:52:14.648Z,19.10
2022-10-17T18:55:01.247Z,19.10
2022-10-17T18:57:49.065Z,19.10
2022-10-17T19:00:37.789Z,19.10
2022-10-17T19:03:24.627Z,19.10
2022-10-17T19:06:12.421Z,19.00
2022-10-17T19:08:59.899Z,19.10
2022-10-17T19:11:46.749Z,19.10
2022-10-17T19:14:33.390Z,19.10
2022-10-17T19:17:21.161Z,19.10
2022-10-17T19:20:09.249Z,18.90
2022-10-17T19:22:56.582Z,19.00
2022-10-17T19:25:43.242Z,18.90
2022-10-17T19:28:29.823Z,18.90
2022-10-17T19:31:18.070Z,18.90
2022-10-17T19:34:06.637Z,18.90
2022-10-17T19:36:53.576Z,18.90
2022-10-17T19:39:40.274Z,18.90
2022-10-17T19:42:26.748Z,18.90
2022-10-17T19:45:13.177Z,18.90
2022-10-17T19:48:00.179Z,18.80
2022-10-17T19:50:48.086Z,18.90
2022-10-17T19:53:35.247Z,18.80
2022-10-17T19:56:23.280Z,18.80
2022-10-17T19:59:12.152Z,18.80
2022-10-17T20:01:58.840Z,18.60
2022-10-17T20:04:54.493Z,18.70
2022-10-17T20:07:53.239Z,18.60
2022-10-17T20:10:40.121Z,18.60
2022-10-17T20:13:26.700Z,18.60
2022-10-17T20:16:15.576Z,18.60
2022-10-17T20:19:06.076Z,18.60
2022-10-17T20:21:52.836Z,18.60
2022-10-17T20:24:40.779Z,18.60
2022-10-17T20:27:27.874Z,18.60
2022-10-17T20:30:14.653Z,18.60
2022-10-17T20:33:01.705Z,18.50
2022-10-17T20:35:48.656Z,18.50
2022-10-17T20:38:35.969Z,18.40
2022-10-17T20:41:24.499Z,18.30
2022-10-17T20:44:12.194Z,18.40
2022-10-17T20:47:02.122Z,18.40
2022-10-17T20:49:49.748Z,18.40
2022-10-17T20:52:38.006Z,18.40
2022-10-17T20:55:24.723Z,18.40
2022-10-17T20:58:13.198Z,18.40
2022-10-17T21:00:59.889Z,18.30
2022-10-17T21:03:46.893Z,18.30
2022-10-17T21:06:33.531Z,18.30
2022-10-17T21:09:20.251Z,18.40
2022-10-17T21:12:06.875Z,18.40
2022-10-17T21:14:55.097Z,18.30
2022-10-17T21:17:41.670Z,18.30
2022-10-17T21:20:28.449Z,18.20
2022-10-17T21:23:14.960Z,18.20
2022-10-17T21:26:01.562Z,18.20
2022-10-17T21:28:49.610Z,18.30
2022-10-17T21:31:38.902Z,18.30
2022-10-17T21:34:25.827Z,18.20
2022-10-17T21:37:12.450Z,18.20
2022-10-17T21:39:58.887Z,18.20
2022-10-17T21:42:45.492Z,18.20
2022-10-17T21:45:32.638Z,18.10
2022-10-17T21:48:20.707Z,18.10
2022-10-17T21:51:09.318Z,18.10
2022-10-17T21:53:57.397Z,18.10
2022-10-17T21:56:44.304Z,18.10
2022-10-17T21:59:34.796Z,18.10
2022-10-17T22:02:21.283Z,18.10
2022-10-17T22:05:09.846Z,18.10
2022-10-17T22:07:56.408Z,18.00
2022-10-17T22:10:42.865Z,18.00
2022-10-17T22:13:29.333Z,18.00
2022-10-17T22:16:17.121Z,18.00
2022-10-17T22:19:06.655Z,17.80
2022-10-17T22:21:55.268Z,17.90
2022-10-17T22:24:42.064Z,17.80
2022-10-17T22:27:28.818Z,17.80
2022-10-17T22:30:15.531Z,17.70
2022-10-17T22:33:01.931Z,17.70
2022-10-17T22:35:49.085Z,17.70
2022-10-17T22:38:37.846Z,17.70
2022-10-17T22:41:24.559Z,17.70
2022-10-17T22:44:11.064Z,17.60
2022-10-17T22:46:57.817Z,17.60
2022-10-17T22:49:44.287Z,17.60
2022-10-17T22:52:30.895Z,17.60
2022-10-17T22:55:19.200Z,17.60
2022-10-17T22:58:05.964Z,17.50
2022-10-17T23:00:53.584Z,17.50
2022-10-17T23:03:40.182Z,17.50
2022-10-17T23:06:26.736Z,17.40
2022-10-17T23:09:14.175Z,17.50
2022-10-17T23:12:02.046Z,17.40
2022-10-17T23:14:48.663Z,17.40
2022-10-17T23:17:35.337Z,17.40
2022-10-17T23:20:21.777Z,17.40
2022-10-17T23:23:08.195Z,17.50
2022-10-17T23:25:54.834Z,17.50
2022-10-17T23:28:43.410Z,17.40
2022-10-17T23:31:29.960Z,17.40
2022-10-17T23:34:16.619Z,17.40
2022-10-17T23:37:03.532Z,17.50
2022-10-17T23:39:50.035Z,17.40
2022-10-17T23:42:36.564Z,17.40
2022-10-17T23:45:24.471Z,17.40
2022-10-17T23:48:11.179Z,17.40
2022-10-17T23:50:58.034Z,17.30
2022-10-17T23:53:44.741Z,17.30
2022-10-17T23:56:31.433Z,17.30
2022-10-17T23:59:18.267Z,17.30
